AirNav   ProFlight Series 2 Aviation Headset
 
 1195 users online  

U06 Cokeville Municipal Airport
Cokeville, Wyoming, USA

GOING TO COKEVILLE?


FAA INFORMATION EFFECTIVE 18 JUNE 2020

Location

FAA Identifier: U06
Lat/Long: 42-02-44.7750N 110-57-57.6740W
42-02.746250N 110-57.961233W
42.0457708,-110.9660206
(estimated)
Elevation: 6270 ft. / 1911 m (estimated)
Variation: 15E (1985)
From city: 3 miles S of COKEVILLE, WY
Time zone: UTC -6 (UTC -7 during Standard Time)
Zip code: 83114

Airport Operations

Airport use: Open to the public
Activation date: 03/1945
Control tower: no
ARTCC: SALT LAKE CITY CENTER
FSS: CASPER FLIGHT SERVICE STATION
NOTAMs facility: CPR (NOTAM-D service available)
Attendance: UNATNDD
Wind indicator: yes
Segmented circle: yes
PANELS CHIPPED AND DENTED WITH PAINT PEELING. GRASS HAS OVERGROWN AND SEGMENTED CIRCLE IS DIFFICULT TO SEE.
Beacon: white-green (lighted land airport)
BCN OTS INDEF. BEACON OTS INDEFLY.

Airport Communications

CTAF: 122.9

Airport Services

Parking: tiedowns
Airframe service: NONE
Powerplant service: NONE
Bottled oxygen: NONE
Bulk oxygen: NONE

Runway Information

Runway 15/33

Dimensions: 3400 x 60 ft. / 1036 x 18 m
Surface: gravel/dirt, in fair condition
CMPCTD ROCK & DIRT WITH AN EMULSIFIED SEALER SPRAYED ON SFC.
Weight bearing capacity: 
Single wheel: 10.0
RUNWAY 15  RUNWAY 33
Elevation: 6260.0 ft.
Traffic pattern: leftleft

Airport Ownership and Management from official FAA records

Ownership: Publicly-owned
Owner: TOWN OF COKEVILLE
P.O. BOX 99
COKEVILLE, WY 83114
Phone 307-279-3227
Manager: MIKE DURAN
CITY HALL, P.O. BOX 99
COKEVILLE, WY 83114
Phone (307) 270-8266

Airport Operational Statistics

Aircraft operations: 32/year *
88% transient general aviation
12% local general aviation
* for 12-month period ending 30 June 2019

Additional Remarks

VARIABLE RY CONDITIONS AND BRAKING ACTION DURING WINTER MONTHS DUE TO THAWING AND FREEZING PRECIP.
+2 FT GROUND 70 FT W OF CNTRLN FULL LENGTH.
120 FT HIGH ELECTRICAL TRANSMISSION LINES RUNNING EAST-WEST 2 MILES NORTH ARPT.
RWY 15/33 ELEVATION HIGHEST NEAR MIDFIELD. NO LINE OF SITE BETWEEN RWY ENDS.
UNCONTROLLED VEHICLE ACCESS TO AIRPORT.
FOR CD CTC SALT LAKE ARTCC AT 801-320-2568.

Instrument Procedures

There are no published instrument procedures at U06.

Some nearby airports with instrument procedures:

1U7 - Bear Lake County Airport (21 nm NW)
KEMM - Kemmerer Municipal Airport (23 nm SE)
KAFO - Afton Municipal Airport (40 nm N)
KLGU - Logan-Cache Airport (42 nm W)
KEVW - Evanston-Uinta County Airport - Burns Field (46 nm S)
 
Loc | Ops | Rwys | IFR | FBO | Links
Com | Nav | Svcs | Stats | Notes
Area around U06 (Cokeville Municipal Airport)
 
Road maps at: MapQuest Bing Google
 
Aerial photo
WARNING: Photo may not be current or correct
Aerial photo of U06 (Cokeville Municipal Airport)
Photo by Cameron Nelson
Photo taken 01-Aug-2013
looking south.

Do you have a better or more recent aerial photo of Cokeville Municipal Airport that you would like to share? If so, please send us your photo.

 
Sectional chart

 
Airport distance calculator
Flying to Cokeville Municipal Airport? Find the distance to fly.

From to U06

Sunrise and sunset
Times for 06-Jul-2020
 Local
(UTC-6)
 Zulu
(UTC)
Morning civil twilight05:2211:22
Sunrise05:5611:56
Sunset21:0103:01
Evening civil twilight21:3503:35

Current date and time
Zulu (UTC)  06-Jul-2020 22:08:13
Local (UTC-6)  06-Jul-2020 16:08:13
 
METAR
K1U7 
21nm NW 
062155Z AUTO 04005KT 10SM CLR 28/02 A3008 RMK A01
KEMM 
23nm SE 
062155Z AUTO 21022G36KT 10SM CLR 29/M07 A3018 RMK AO2
KAFO 
40nm N 
062155Z AUTO 20009KT 10SM CLR 26/05 A3011 RMK AO2
TAF
KLGU 
42nm W 
061740Z 0618/0718 VRB04KT P6SM SKC FM062000 24005KT P6SM SKC FM070200 VRB04KT P6SM SKC FM071700 28008KT P6SM SKC
KEVW 
47nm S 
061740Z 0618/0718 24012G21KT P6SM SKC FM070300 28009KT P6SM SKC FM070600 15008KT P6SM FEW140 FM071500 24010G18KT P6SM FEW140
NOTAMs
Click for the latest NOTAMs
NOTAMs are issued by the DoD/FAA and will open in a separate window not controlled by AirNav.

 

 
 

Would you like to see your business listed on this page?

 If your business provides an interesting product or service to pilots, flight crews, aircraft, or users of the Cokeville Municipal Airport, you should consider listing it here.  To start the listing process, click on the button below
 
Add a business
 

Other Pages about Cokeville Municipal Airport

Update a link
 
Copyright © AirNav, LLC. All rights reserved. Privacy Policy  Contact